Time;durP1;ratioP1;P1;durP2;ratioP2;P2;SDS_P1;SDS_P2;PMS_P1;PMS_P2;Temp;Humidity;BMP_temperature;BMP_pressure;BME280_temperature;BME280_humidity;BME280_pressure;Samples;Min_cycle;Max_cycle;Signal;HPM_P1;HPM_P2
2024/03/16 00:00:13;;;;;;;17.05;1.90;;;11.30;99.90;;;;;;5011718;28;20938;-82
2024/03/16 00:02:40;;;;;;;12.80;1.98;;;11.30;99.90;;;;;;4977981;28;20041;-82
2024/03/16 00:05:06;;;;;;;13.13;2.15;;;11.40;99.90;;;;;;5010312;28;20037;-82
2024/03/16 00:07:32;;;;;;;12.80;1.92;;;11.40;99.90;;;;;;4993263;28;20412;-82
2024/03/16 00:09:59;;;;;;;10.43;2.10;;;11.30;99.90;;;;;;5023795;28;20049;-82
2024/03/16 00:12:25;;;;;;;12.50;1.65;;;11.40;99.90;;;;;;5011318;28;20037;-82
2024/03/16 00:14:51;;;;;;;12.32;1.77;;;11.40;99.90;;;;;;5012847;28;20396;-82
2024/03/16 00:17:19;;;;;;;11.18;1.65;;;11.40;99.90;;;;;;4979664;28;20048;-82
2024/03/16 00:19:45;;;;;;;8.65;1.50;;;11.40;99.90;;;;;;4995489;28;20053;-82
2024/03/16 00:22:12;;;;;;;13.63;2.10;;;11.40;99.90;;;;;;4998041;28;20045;-82
2024/03/16 00:24:38;;;;;;;13.77;2.55;;;11.40;99.90;;;;;;4975337;28;20044;-81
2024/03/16 00:27:05;;;;;;;15.68;2.83;;;11.40;99.90;;;;;;4995932;28;20052;-81
2024/03/16 00:29:31;;;;;;;14.57;2.28;;;11.40;99.90;;;;;;4980061;28;20033;-82
2024/03/16 00:31:58;;;;;;;14.32;3.15;;;11.40;99.90;;;;;;4980618;28;20037;-81
2024/03/16 00:34:24;;;;;;;12.70;2.75;;;11.40;99.90;;;;;;4995024;28;20037;-82
2024/03/16 00:36:52;;;;;;;14.02;2.60;;;11.40;99.90;;;;;;4995171;28;20042;-82
2024/03/16 00:39:23;;;;;;;16.30;3.53;;;11.40;99.90;;;;;;5011694;28;20045;-81
2024/03/16 00:41:50;;;;;;;13.73;2.63;;;11.40;99.90;;;;;;4993533;28;20648;-81
2024/03/16 00:44:18;;;;;;;14.55;2.28;;;11.40;99.90;;;;;;4997458;28;20389;-80
2024/03/16 00:46:45;;;;;;;13.23;2.88;;;11.40;99.90;;;;;;4996803;28;20036;-84
2024/03/16 00:49:11;;;;;;;18.98;3.33;;;11.30;99.90;;;;;;4980646;28;20046;-83
2024/03/16 01:02:14;;;;;;;25.45;6.05;;;11.30;99.90;;;;;;6192459;22;423232;-83
2024/03/16 01:04:40;;;;;;;17.42;3.92;;;10.90;99.90;;;;;;6154776;23;20015;-83
2024/03/16 01:07:07;;;;;;;21.48;5.28;;;10.90;99.90;;;;;;6161178;23;20008;-82
2024/03/16 01:09:33;;;;;;;14.23;3.88;;;10.80;99.90;;;;;;6161895;23;20005;-82
2024/03/16 01:11:59;;;;;;;22.05;4.50;;;10.80;99.90;;;;;;6214026;23;20011;-82
2024/03/16 01:14:26;;;;;;;18.20;4.88;;;10.80;99.90;;;;;;6162433;23;20010;-82
2024/03/16 01:16:52;;;;;;;11.48;3.80;;;10.80;99.90;;;;;;6150256;23;20019;-82
2024/03/16 01:19:18;;;;;;;18.95;4.85;;;10.80;99.90;;;;;;6125426;23;20432;-84
2024/03/16 01:21:45;;;;;;;19.48;4.85;;;10.80;99.90;;;;;;6125439;23;20342;-82
2024/03/16 01:24:11;;;;;;;17.63;5.18;;;10.80;99.90;;;;;;6185524;23;20016;-81
2024/03/16 01:26:38;;;;;;;17.08;5.00;;;10.80;99.90;;;;;;6175074;23;20015;-82
2024/03/16 01:29:05;;;;;;;22.10;6.78;;;10.80;99.90;;;;;;6126686;23;20008;-81
2024/03/16 01:31:31;;;;;;;17.92;5.30;;;10.80;99.90;;;;;;6127898;23;20425;-81
2024/03/16 01:33:58;;;;;;;17.02;5.65;;;10.80;99.90;;;;;;6186858;23;20330;-82
2024/03/16 01:36:24;;;;;;;19.40;6.53;;;10.80;99.90;;;;;;6212017;23;20008;-82
2024/03/16 01:38:50;;;;;;;19.00;7.32;;;10.80;99.90;;;;;;6186751;23;20019;-83
2024/03/16 01:41:17;;;;;;;27.00;8.98;;;10.80;99.90;;;;;;6176433;23;20023;-83
2024/03/16 01:43:47;;;;;;;40.67;11.55;;;10.80;99.90;;;;;;6127429;23;20012;-82
2024/03/16 01:46:15;;;;;;;24.38;8.60;;;10.80;99.90;;;;;;6212921;23;20008;-82
2024/03/16 01:48:42;;;;;;;22.15;8.93;;;10.80;99.90;;;;;;6151577;23;20012;-84
2024/03/16 01:51:09;;;;;;;22.85;8.77;;;10.80;99.90;;;;;;6126669;23;20016;-83
2024/03/16 01:53:38;;;;;;;21.05;8.45;;;10.80;99.90;;;;;;6163937;23;20056;-84
2024/03/16 01:56:04;;;;;;;29.25;10.30;;;10.80;99.90;;;;;;6152608;23;20008;-83
2024/03/16 01:58:36;;;;;;;30.17;11.73;;;10.80;99.90;;;;;;6153381;23;20016;-85
2024/03/16 02:01:03;;;;;;;25.23;10.25;;;10.80;99.90;;;;;;6128041;23;20012;-83
2024/03/16 02:03:29;;;;;;;28.27;10.68;;;10.70;99.90;;;;;;6172064;23;20319;-83
2024/03/16 02:05:56;;;;;;;30.85;10.75;;;10.70;99.90;;;;;;6157540;23;20111;-83
2024/03/16 02:08:25;;;;;;;27.23;11.52;;;10.70;99.90;;;;;;6146764;23;20249;-83
2024/03/16 02:10:51;;;;;;;22.48;9.85;;;10.70;99.90;;;;;;6173508;23;20013;-83
2024/03/16 02:13:18;;;;;;;20.90;10.65;;;10.80;99.90;;;;;;6187573;23;19996;-83
2024/03/16 02:15:44;;;;;;;30.65;13.07;;;10.80;99.90;;;;;;6151676;23;20012;-81
2024/03/16 02:18:10;;;;;;;32.53;13.10;;;10.80;99.90;;;;;;6146751;23;20440;-83
2024/03/16 02:20:37;;;;;;;21.92;11.50;;;10.70;99.90;;;;;;6182449;23;20008;-82
2024/03/16 02:23:04;;;;;;;26.25;12.52;;;10.70;99.90;;;;;;6146831;23;20008;-82
2024/03/16 02:25:30;;;;;;;39.92;14.77;;;10.70;99.90;;;;;;6170474;23;20017;-83
2024/03/16 02:27:56;;;;;;;21.73;10.85;;;10.70;99.90;;;;;;6121510;23;20012;-81
2024/03/16 02:30:24;;;;;;;35.35;13.88;;;10.70;99.90;;;;;;6181543;23;20020;-82
2024/03/16 02:32:50;;;;;;;34.20;13.73;;;10.70;99.90;;;;;;6146750;23;20004;-82
2024/03/16 02:35:16;;;;;;;23.55;10.73;;;10.70;99.90;;;;;;6146965;23;20464;-82
2024/03/16 02:37:43;;;;;;;23.20;10.10;;;10.80;99.90;;;;;;6146576;23;20012;-81
2024/03/16 02:40:13;;;;;;;30.50;13.50;;;10.70;99.90;;;;;;6145992;23;20016;-81
2024/03/16 02:42:42;;;;;;;33.38;13.38;;;10.80;99.90;;;;;;6122518;23;20013;-80
2024/03/16 02:45:08;;;;;;;38.58;15.90;;;10.80;99.90;;;;;;6147151;23;20438;-82
2024/03/16 02:47:35;;;;;;;31.63;15.00;;;10.80;99.90;;;;;;6181026;23;20007;-83
2024/03/16 02:50:03;;;;;;;27.80;13.45;;;10.80;99.90;;;;;;6122589;23;20468;-82
2024/03/16 02:52:31;;;;;;;32.83;15.82;;;10.80;99.90;;;;;;6123101;23;20017;-82
2024/03/16 02:54:58;;;;;;;32.60;14.95;;;10.80;99.90;;;;;;6170835;23;20467;-83
2024/03/16 02:57:25;;;;;;;42.13;18.40;;;10.70;99.90;;;;;;6182200;23;20012;-82
2024/03/16 02:59:51;;;;;;;39.15;18.42;;;10.70;99.90;;;;;;6146081;23;20016;-82
2024/03/16 03:02:22;;;;;;;38.95;18.73;;;10.70;99.90;;;;;;6172814;23;20012;-81
2024/03/16 03:04:53;;;;;;;35.80;16.63;;;10.60;99.90;;;;;;6122004;23;20039;-82
2024/03/16 03:07:20;;;;;;;33.88;17.85;;;10.60;99.90;;;;;;6146366;23;20004;-81
2024/03/16 03:09:47;;;;;;;39.85;18.10;;;10.50;99.90;;;;;;6170696;23;20009;-82
2024/03/16 03:12:13;;;;;;;32.90;16.52;;;10.50;99.90;;;;;;6157143;23;20031;-81
2024/03/16 03:14:40;;;;;;;35.10;16.67;;;10.40;99.90;;;;;;6146601;23;20478;-82
2024/03/16 03:17:07;;;;;;;38.63;17.40;;;10.40;99.90;;;;;;6146071;23;20009;-82
2024/03/16 03:19:33;;;;;;;26.50;14.43;;;10.30;99.90;;;;;;6121727;23;20031;-82
2024/03/16 03:21:59;;;;;;;34.13;15.65;;;10.30;99.90;;;;;;6171642;23;20016;-81
2024/03/16 03:24:26;;;;;;;25.42;12.88;;;10.20;99.90;;;;;;6121951;23;20004;-81
2024/03/16 03:26:54;;;;;;;27.98;13.48;;;10.10;99.90;;;;;;6146085;23;20031;-83
2024/03/16 03:29:20;;;;;;;20.30;12.45;;;10.00;99.90;;;;;;6156897;23;20008;-83
2024/03/16 03:31:46;;;;;;;17.25;12.15;;;10.00;99.90;;;;;;6145437;23;20020;-83
2024/03/16 03:34:13;;;;;;;21.80;13.70;;;9.90;99.90;;;;;;6182002;23;20007;-83
2024/03/16 03:36:44;;;;;;;27.58;14.73;;;9.80;99.90;;;;;;6121311;23;20009;-82
2024/03/16 03:39:14;;;;;;;19.42;13.48;;;9.80;99.90;;;;;;6145464;23;20468;-82
2024/03/16 03:41:40;;;;;;;23.75;15.95;;;9.70;99.90;;;;;;6208743;23;20008;-82
2024/03/16 03:44:20;;;;;;;23.42;15.18;;;9.70;99.90;;;;;;6156617;23;20000;-81
2024/03/16 03:46:50;;;;;;;23.92;16.40;;;9.70;99.90;;;;;;6121095;23;20053;-82
2024/03/16 03:49:28;;;;;;;21.70;17.23;;;9.60;99.90;;;;;;6181408;23;20010;-82
2024/03/16 03:51:57;;;;;;;21.55;16.73;;;9.60;99.90;;;;;;6157188;23;20019;-82
2024/03/16 03:54:24;;;;;;;22.67;17.40;;;9.60;99.90;;;;;;6146326;23;20844;-81
2024/03/16 03:56:51;;;;;;;19.90;16.88;;;9.60;99.90;;;;;;6146615;23;20375;-82
2024/03/16 03:59:18;;;;;;;22.73;16.85;;;9.50;99.90;;;;;;6144518;23;20017;-82
2024/03/16 04:01:45;;;;;;;24.27;16.70;;;9.50;99.90;;;;;;6121294;23;20016;-81
2024/03/16 04:04:11;;;;;;;17.50;14.40;;;9.50;99.90;;;;;;6145854;23;20012;-81
2024/03/16 04:06:38;;;;;;;17.48;13.40;;;9.50;99.90;;;;;;6145641;23;20364;-81
2024/03/16 04:09:04;;;;;;;17.27;11.38;;;9.50;99.90;;;;;;6145596;23;20009;-81
2024/03/16 04:11:31;;;;;;;17.98;10.85;;;9.50;99.90;;;;;;6122137;23;20020;-82
2024/03/16 04:13:57;;;;;;;14.77;9.80;;;9.40;99.90;;;;;;6150049;23;20468;-82
2024/03/16 04:16:23;;;;;;;11.38;9.45;;;9.40;99.90;;;;;;6148827;23;20036;-83
2024/03/16 04:18:50;;;;;;;12.68;8.57;;;9.30;99.90;;;;;;6158138;23;20004;-81
2024/03/16 04:21:16;;;;;;;8.57;6.38;;;9.30;99.90;;;;;;6122134;23;20653;-82
2024/03/16 04:23:43;;;;;;;8.40;4.85;;;9.20;99.90;;;;;;6157187;23;20332;-81
2024/03/16 04:26:10;;;;;;;6.03;4.65;;;9.10;99.90;;;;;;6156219;23;20285;-81
2024/03/16 04:28:37;;;;;;;5.80;4.60;;;9.10;99.90;;;;;;6121218;23;20009;-81
2024/03/16 04:31:03;;;;;;;5.65;4.20;;;9.00;99.90;;;;;;6121402;23;20017;-82
2024/03/16 04:33:30;;;;;;;5.60;3.70;;;9.00;99.90;;;;;;6171152;23;20188;-82
2024/03/16 04:35:57;;;;;;;6.45;3.60;;;9.00;99.90;;;;;;6145504;23;20023;-82
2024/03/16 04:38:23;;;;;;;4.25;2.97;;;9.00;99.90;;;;;;6169200;23;20012;-82
2024/03/16 04:40:50;;;;;;;5.22;3.05;;;8.90;99.90;;;;;;6146491;23;20329;-81
2024/03/16 04:43:16;;;;;;;4.55;2.60;;;8.90;99.90;;;;;;6122488;23;20004;-83
2024/03/16 04:45:47;;;;;;;5.30;2.50;;;8.90;99.90;;;;;;6146336;23;20337;-82
2024/03/16 04:48:14;;;;;;;6.43;2.35;;;8.90;99.90;;;;;;6145156;23;20008;-82
2024/03/16 04:50:41;;;;;;;4.45;1.85;;;8.80;99.90;;;;;;6146839;23;20013;-81
2024/03/16 04:53:07;;;;;;;4.22;2.00;;;8.80;99.90;;;;;;6147046;23;20012;-82
2024/03/16 04:55:33;;;;;;;7.13;3.20;;;8.80;99.90;;;;;;6157235;23;20081;-82
2024/03/16 04:58:04;;;;;;;7.88;2.30;;;8.80;99.90;;;;;;6143965;23;20020;-81
2024/03/16 05:00:30;;;;;;;6.57;2.55;;;8.80;99.90;;;;;;6144787;23;20019;-82
2024/03/16 05:02:56;;;;;;;6.47;2.50;;;8.80;99.90;;;;;;6147835;23;20306;-83
2024/03/16 05:05:23;;;;;;;7.18;2.45;;;8.80;99.90;;;;;;6156624;23;20011;-83
2024/03/16 05:07:49;;;;;;;6.95;2.33;;;8.70;99.90;;;;;;6120957;23;20009;-82
2024/03/16 05:10:16;;;;;;;7.50;1.65;;;8.70;99.90;;;;;;6180822;23;20005;-81
2024/03/16 05:12:42;;;;;;;4.47;2.20;;;8.70;99.90;;;;;;6145893;23;20017;-84
2024/03/16 05:15:09;;;;;;;6.30;2.05;;;8.70;99.90;;;;;;6156212;23;20001;-82
2024/03/16 05:17:39;;;;;;;5.05;1.45;;;8.70;99.90;;;;;;6144345;23;20441;-83
2024/03/16 05:20:09;;;;;;;8.82;1.83;;;8.70;99.90;;;;;;6180769;23;20059;-84
2024/03/16 05:22:35;;;;;;;8.57;1.92;;;8.70;99.90;;;;;;6155016;23;20005;-84
2024/03/16 05:25:02;;;;;;;7.63;1.85;;;8.70;99.90;;;;;;6170008;23;20012;-83
2024/03/16 05:27:28;;;;;;;9.70;1.77;;;8.60;99.90;;;;;;6144609;23;20009;-84
2024/03/16 05:29:55;;;;;;;5.50;1.63;;;8.60;99.90;;;;;;6180459;23;20016;-83
2024/03/16 05:32:23;;;;;;;4.18;1.70;;;8.60;99.90;;;;;;6155478;23;20028;-82
2024/03/16 05:34:49;;;;;;;3.72;1.13;;;8.60;99.90;;;;;;6155832;23;20039;-83
2024/03/16 05:37:16;;;;;;;6.45;1.58;;;8.60;99.90;;;;;;6145713;23;20450;-81
2024/03/16 05:39:42;;;;;;;4.80;1.33;;;8.60;99.90;;;;;;6145912;23;20016;-84
2024/03/16 05:42:11;;;;;;;3.88;1.45;;;8.50;99.90;;;;;;6182335;23;20008;-83
2024/03/16 05:44:37;;;;;;;8.57;1.95;;;8.50;99.90;;;;;;6181877;23;20005;-84
2024/03/16 05:47:03;;;;;;;4.88;1.10;;;8.50;99.90;;;;;;6122649;23;20011;-81
2024/03/16 05:49:30;;;;;;;4.60;1.88;;;8.40;99.90;;;;;;6122511;23;20004;-82
2024/03/16 05:51:56;;;;;;;4.20;1.25;;;8.30;99.90;;;;;;6182799;23;20099;-82
2024/03/16 05:54:22;;;;;;;5.32;1.45;;;8.30;99.90;;;;;;6147247;23;20766;-82
2024/03/16 05:56:49;;;;;;;5.45;1.63;;;8.30;99.90;;;;;;6123239;23;20020;-82
2024/03/16 05:59:16;;;;;;;11.38;2.10;;;8.40;99.90;;;;;;6157098;23;20004;-84
2024/03/16 06:01:42;;;;;;;9.38;2.00;;;8.40;99.90;;;;;;6122537;23;20016;-82
2024/03/16 06:04:09;;;;;;;6.25;1.45;;;8.40;99.90;;;;;;6146584;23;20014;-83
2024/03/16 06:06:35;;;;;;;10.43;2.20;;;8.50;99.90;;;;;;6147347;23;20355;-85
2024/03/16 06:09:01;;;;;;;7.82;2.38;;;8.50;99.90;;;;;;6146695;23;20013;-81
2024/03/16 06:11:28;;;;;;;5.45;1.40;;;8.40;99.90;;;;;;6147454;23;20600;-83
2024/03/16 06:13:54;;;;;;;4.80;1.00;;;8.30;99.90;;;;;;6122674;23;20023;-83
2024/03/16 06:16:21;;;;;;;3.97;0.90;;;8.30;99.90;;;;;;6180719;23;20004;-82
2024/03/16 06:18:48;;;;;;;5.07;0.68;;;8.20;99.90;;;;;;6120182;23;20020;-83
2024/03/16 06:21:14;;;;;;;2.35;0.50;;;8.10;99.90;;;;;;6207220;23;20975;-82
2024/03/16 06:23:41;;;;;;;2.85;0.52;;;8.00;99.90;;;;;;6170205;23;20035;-82
2024/03/16 06:26:09;;;;;;;9.82;0.80;;;8.00;99.90;;;;;;6146585;23;20016;-83
2024/03/16 06:28:37;;;;;;;5.68;0.70;;;8.00;99.90;;;;;;6121213;23;20019;-84
2024/03/16 06:31:09;;;;;;;5.60;0.88;;;8.00;99.90;;;;;;6182498;23;20457;-82
2024/03/16 06:33:36;;;;;;;7.28;0.90;;;7.90;99.90;;;;;;6182093;23;20004;-82
2024/03/16 06:36:05;;;;;;;6.05;0.70;;;7.90;99.90;;;;;;6121770;23;20008;-83
2024/03/16 06:38:32;;;;;;;3.60;0.50;;;7.90;99.90;;;;;;6144602;23;20012;-82
2024/03/16 06:40:58;;;;;;;5.47;0.73;;;7.90;99.90;;;;;;6122358;23;20020;-82
2024/03/16 06:43:25;;;;;;;6.40;0.70;;;8.00;99.90;;;;;;6157907;23;20520;-81
2024/03/16 06:45:51;;;;;;;4.93;0.70;;;8.00;99.90;;;;;;6146571;23;20059;-82
2024/03/16 06:48:18;;;;;;;3.17;0.80;;;8.10;99.90;;;;;;6145591;23;20334;-82
2024/03/16 06:50:46;;;;;;;3.05;0.50;;;8.10;99.90;;;;;;6122317;23;20012;-82
2024/03/16 06:53:13;;;;;;;1.38;0.57;;;8.10;99.90;;;;;;6171330;23;20008;-82
2024/03/16 06:55:39;;;;;;;3.83;0.38;;;8.10;99.90;;;;;;6146574;23;20024;-81
2024/03/16 06:58:07;;;;;;;4.20;0.50;;;8.20;99.90;;;;;;6169918;23;20504;-81
2024/03/16 07:00:35;;;;;;;6.90;0.55;;;8.20;99.90;;;;;;6169752;23;20278;-82
2024/03/16 07:03:02;;;;;;;5.30;0.65;;;8.20;99.90;;;;;;6147333;23;20024;-82
2024/03/16 07:05:29;;;;;;;3.33;0.50;;;8.10;99.90;;;;;;6171012;23;20019;-83
2024/03/16 07:07:55;;;;;;;2.83;0.50;;;8.10;99.90;;;;;;6170107;23;20504;-82
2024/03/16 07:10:23;;;;;;;3.72;0.70;;;8.10;99.90;;;;;;6122264;23;20544;-82
2024/03/16 07:12:49;;;;;;;5.93;0.60;;;8.10;99.90;;;;;;6156837;23;20013;-82
2024/03/16 07:15:15;;;;;;;4.78;0.50;;;8.10;99.90;;;;;;6182304;23;20008;-84
2024/03/16 07:17:42;;;;;;;5.13;0.80;;;8.20;99.90;;;;;;6182081;23;20015;-82
2024/03/16 07:20:13;;;;;;;2.58;0.70;;;8.20;99.90;;;;;;6182188;23;20409;-82
2024/03/16 07:22:40;;;;;;;5.32;0.70;;;8.30;99.90;;;;;;6181522;23;20009;-83
2024/03/16 07:25:07;;;;;;;9.00;1.00;;;8.30;99.90;;;;;;6156806;23;20314;-82
2024/03/16 07:27:36;;;;;;;6.07;0.90;;;8.30;99.90;;;;;;6156570;23;20381;-83
2024/03/16 07:30:02;;;;;;;4.10;0.70;;;8.30;99.90;;;;;;6120828;23;20013;-82
2024/03/16 07:32:29;;;;;;;6.03;0.80;;;8.20;99.90;;;;;;6145828;23;20017;-82
2024/03/16 07:34:55;;;;;;;5.68;0.80;;;8.30;99.90;;;;;;6145573;23;20019;-82
2024/03/16 07:37:21;;;;;;;3.85;0.73;;;8.30;99.90;;;;;;6120641;23;20013;-83
2024/03/16 07:39:48;;;;;;;5.43;1.52;;;8.30;99.90;;;;;;6180795;23;20000;-81
2024/03/16 07:42:14;;;;;;;9.90;1.10;;;8.30;99.90;;;;;;6122969;23;20013;-82
2024/03/16 07:44:41;;;;;;;4.03;0.80;;;8.40;99.90;;;;;;6170059;23;20012;-83
2024/03/16 07:47:07;;;;;;;3.60;0.88;;;8.40;99.90;;;;;;6144713;23;20373;-82
2024/03/16 07:49:34;;;;;;;5.75;0.82;;;8.40;99.90;;;;;;6121192;23;20021;-82
2024/03/16 07:52:00;;;;;;;4.13;0.70;;;8.50;99.90;;;;;;6123418;23;20013;-81
2024/03/16 07:54:27;;;;;;;3.00;0.60;;;8.60;99.90;;;;;;6121906;23;20004;-83
2024/03/16 07:56:53;;;;;;;7.18;1.08;;;8.70;99.90;;;;;;6145975;23;20009;-82
2024/03/16 07:59:20;;;;;;;5.68;1.27;;;8.70;99.90;;;;;;6181157;23;20007;-82
2024/03/16 08:01:46;;;;;;;5.93;1.38;;;8.70;99.90;;;;;;6170869;23;20016;-83
2024/03/16 08:04:12;;;;;;;10.02;1.13;;;8.70;99.90;;;;;;6157843;23;19997;-81
2024/03/16 08:06:40;;;;;;;5.57;0.90;;;8.80;99.90;;;;;;6147712;23;20000;-82
2024/03/16 08:09:08;;;;;;;8.63;1.60;;;8.80;99.90;;;;;;6147157;23;20016;-82
2024/03/16 08:11:35;;;;;;;7.20;1.20;;;8.90;99.90;;;;;;6146601;23;20023;-84
2024/03/16 08:14:05;;;;;;;5.13;1.15;;;8.90;99.90;;;;;;6121960;23;20016;-83
2024/03/16 08:16:32;;;;;;;7.40;1.10;;;9.00;99.90;;;;;;6145873;23;20004;-84
2024/03/16 08:18:58;;;;;;;8.73;1.88;;;9.10;99.90;;;;;;6145938;23;20017;-82
2024/03/16 08:21:25;;;;;;;4.72;1.10;;;9.10;99.90;;;;;;6180684;23;20638;-82
2024/03/16 08:23:51;;;;;;;9.55;1.27;;;9.30;99.90;;;;;;6146527;23;20341;-83
2024/03/16 08:26:18;;;;;;;10.35;4.13;;;9.30;99.90;;;;;;6144855;23;20334;-81
2024/03/16 08:28:45;;;;;;;10.27;1.77;;;9.30;99.90;;;;;;6156994;23;20008;-81
2024/03/16 08:31:11;;;;;;;9.02;1.48;;;9.40;99.90;;;;;;6180983;23;20009;-80
2024/03/16 08:33:38;;;;;;;6.65;1.27;;;9.50;99.90;;;;;;6170636;23;20015;-80
2024/03/16 08:36:05;;;;;;;6.20;1.63;;;9.60;99.90;;;;;;6155750;23;20326;-81
2024/03/16 08:38:36;;;;;;;6.78;1.17;;;9.60;99.90;;;;;;6120641;23;20028;-82
2024/03/16 08:41:02;;;;;;;8.40;1.00;;;9.70;99.90;;;;;;6144630;23;20051;-80
2024/03/16 08:43:28;;;;;;;2.67;0.85;;;9.80;99.90;;;;;;6144740;23;20442;-79
2024/03/16 08:45:55;;;;;;;12.30;2.75;;;9.90;99.90;;;;;;6203426;23;20000;-79
2024/03/16 08:48:21;;;;;;;8.13;1.70;;;9.90;99.90;;;;;;6167316;23;20001;-79
2024/03/16 08:50:47;;;;;;;9.20;4.97;;;10.00;99.90;;;;;;6179586;23;20008;-82
2024/03/16 08:53:14;;;;;;;9.55;2.60;;;10.00;99.90;;;;;;6145846;23;20012;-80
2024/03/16 08:55:40;;;;;;;4.55;1.02;;;10.10;99.90;;;;;;6155992;23;20000;-78
2024/03/16 08:58:07;;;;;;;9.88;1.38;;;10.10;99.90;;;;;;6143861;23;20040;-80
2024/03/16 09:00:33;;;;;;;6.20;1.50;;;10.20;99.90;;;;;;6146380;23;20023;-79
2024/03/16 09:03:00;;;;;;;6.95;1.50;;;10.30;99.90;;;;;;6169851;23;20231;-81
2024/03/16 09:05:27;;;;;;;6.75;0.80;;;10.40;99.90;;;;;;6204975;23;20001;-80
2024/03/16 09:07:53;;;;;;;8.05;0.80;;;10.50;99.90;;;;;;6140845;23;20015;-80
2024/03/16 09:10:20;;;;;;;3.05;0.60;;;10.50;99.90;;;;;;6144041;23;20013;-82
2024/03/16 09:12:46;;;;;;;4.13;0.70;;;10.50;99.90;;;;;;6180880;23;20906;-81
2024/03/16 09:15:13;;;;;;;8.13;1.23;;;10.50;99.90;;;;;;6170877;23;20417;-81
2024/03/16 09:17:40;;;;;;;7.63;0.88;;;10.50;99.90;;;;;;6156201;23;20295;-79
2024/03/16 09:20:10;;;;;;;6.53;1.13;;;10.40;99.90;;;;;;6170604;23;20313;-79
2024/03/16 09:22:39;;;;;;;5.20;0.80;;;10.40;99.90;;;;;;6122802;23;20385;-84
2024/03/16 09:25:06;;;;;;;8.00;0.85;;;10.30;99.90;;;;;;6122451;23;20372;-81
2024/03/16 09:27:35;;;;;;;8.82;2.08;;;10.20;99.90;;;;;;6157059;23;20020;-81
2024/03/16 09:30:05;;;;;;;7.10;1.02;;;10.20;99.90;;;;;;6182487;23;20306;-81
2024/03/16 09:32:33;;;;;;;3.83;0.77;;;10.20;99.90;;;;;;6157655;23;20012;-82
2024/03/16 09:34:59;;;;;;;7.10;1.45;;;10.20;99.90;;;;;;6182591;23;20434;-80
2024/03/16 09:37:26;;;;;;;9.80;1.50;;;10.20;99.90;;;;;;6157999;23;20031;-83
2024/03/16 09:39:52;;;;;;;7.20;1.10;;;10.30;99.90;;;;;;6118658;23;20056;-82
2024/03/16 09:42:21;;;;;;;7.55;0.80;;;10.30;99.90;;;;;;6146860;23;20017;-82
2024/03/16 09:44:48;;;;;;;6.35;0.80;;;10.30;99.90;;;;;;6123527;23;20012;-82
2024/03/16 09:47:23;;;;;;;6.13;0.80;;;10.30;99.90;;;;;;6173102;23;20009;-84
2024/03/16 09:49:50;;;;;;;8.10;0.70;;;10.30;99.90;;;;;;6121851;23;20012;-82
2024/03/16 09:52:17;;;;;;;5.10;0.50;;;10.30;99.90;;;;;;6147592;23;20013;-84
2024/03/16 09:54:44;;;;;;;3.90;0.85;;;10.30;99.90;;;;;;6123007;23;20008;-83
2024/03/16 09:57:15;;;;;;;7.72;0.60;;;10.30;99.90;;;;;;6121549;23;20372;-84
2024/03/16 09:59:48;;;;;;;8.25;0.80;;;10.40;99.90;;;;;;6146452;23;20381;-84
2024/03/16 10:02:19;;;;;;;6.15;0.50;;;10.50;99.90;;;;;;6146821;23;20027;-84
2024/03/16 10:04:48;;;;;;;5.00;0.40;;;10.60;99.90;;;;;;6149761;23;20350;-84
2024/03/16 10:07:17;;;;;;;3.22;0.43;;;10.60;99.90;;;;;;6160927;23;20333;-84
2024/03/16 10:09:55;;;;;;;4.38;0.30;;;10.70;99.90;;;;;;6156350;23;20692;-83
2024/03/16 10:12:23;;;;;;;4.53;0.70;;;10.70;99.90;;;;;;6122444;23;20028;-84
2024/03/16 10:15:09;;;;;;;2.83;0.40;;;10.70;99.90;;;;;;6170258;23;20005;-84
2024/03/16 10:17:36;;;;;;;7.70;0.65;;;10.70;99.90;;;;;;6155956;23;20457;-84
2024/03/16 10:20:15;;;;;;;4.65;0.60;;;10.60;99.90;;;;;;6120978;23;20008;-84
2024/03/16 10:22:43;;;;;;;3.67;0.45;;;10.60;99.90;;;;;;6122282;23;20013;-82
2024/03/16 10:25:09;;;;;;;5.72;0.55;;;10.40;99.90;;;;;;6121763;23;20005;-82
2024/03/16 10:27:38;;;;;;;3.10;0.47;;;10.30;99.90;;;;;;6145113;23;20012;-83
2024/03/16 10:30:17;;;;;;;4.78;0.50;;;10.30;99.90;;;;;;6121436;23;20009;-82
2024/03/16 10:32:48;;;;;;;6.05;1.33;;;10.30;99.90;;;;;;6182777;23;20280;-82
2024/03/16 10:35:25;;;;;;;4.70;0.50;;;10.40;99.90;;;;;;6122593;23;20015;-83
2024/03/16 10:37:52;;;;;;;5.45;0.65;;;10.60;99.90;;;;;;6122801;23;20330;-81
2024/03/16 10:40:21;;;;;;;7.38;0.80;;;10.70;99.90;;;;;;6122552;23;20018;-82
2024/03/16 10:42:50;;;;;;;3.67;0.60;;;10.90;99.90;;;;;;6146560;23;20492;-85
2024/03/16 10:45:20;;;;;;;5.28;0.55;;;11.00;99.90;;;;;;6157865;23;20027;-85
2024/03/16 10:47:54;;;;;;;4.55;0.40;;;11.10;99.90;;;;;;6122998;23;20012;-87
2024/03/16 10:50:24;;;;;;;3.08;0.57;;;11.10;99.90;;;;;;6123092;23;20366;-87
2024/03/16 10:52:52;;;;;;;4.93;0.88;;;11.10;99.90;;;;;;6183346;23;20352;-85
2024/03/16 10:55:24;;;;;;;4.15;0.75;;;11.10;99.90;;;;;;6147843;23;20032;-85
2024/03/16 10:57:52;;;;;;;5.57;0.57;;;11.20;99.90;;;;;;6121182;23;20004;-85
2024/03/16 11:00:25;;;;;;;7.10;0.52;;;11.10;99.90;;;;;;6122332;23;20013;-86
2024/03/16 11:03:07;;;;;;;5.40;0.60;;;11.10;99.90;;;;;;6146953;23;20012;-85
2024/03/16 11:05:35;;;;;;;5.82;0.70;;;11.10;99.90;;;;;;6169792;23;20230;-87
2024/03/16 11:08:36;;;;;;;5.43;0.73;;;11.20;99.90;;;;;;6143755;23;20005;-87
2024/03/16 11:11:04;;;;;;;4.80;0.68;;;11.40;99.90;;;;;;6145434;23;20514;-86
2024/03/16 11:13:31;;;;;;;5.07;0.80;;;11.80;99.90;;;;;;6181858;23;20422;-85
2024/03/16 11:15:57;;;;;;;5.60;0.60;;;12.00;99.90;;;;;;6181859;23;20488;-87
2024/03/16 11:18:24;;;;;;;7.57;0.70;;;12.20;99.90;;;;;;6145773;23;20469;-87
2024/03/16 11:20:53;;;;;;;3.10;0.50;;;12.10;99.90;;;;;;6147397;23;20009;-88
2024/03/16 11:23:30;;;;;;;5.95;0.50;;;12.00;99.90;;;;;;6123565;23;20005;-86
2024/03/16 11:26:00;;;;;;;3.25;0.50;;;12.00;99.90;;;;;;6172440;23;20012;-87
2024/03/16 11:28:44;;;;;;;4.47;0.70;;;12.00;99.90;;;;;;6145341;23;20009;-87
2024/03/16 11:31:36;;;;;;;3.67;0.75;;;11.90;99.90;;;;;;6182594;23;20004;-86
2024/03/16 11:34:04;;;;;;;8.27;0.68;;;11.90;99.90;;;;;;6122983;23;20020;-84
2024/03/16 11:36:32;;;;;;;3.08;0.50;;;11.90;99.90;;;;;;6122316;23;20015;-85
2024/03/16 11:39:00;;;;;;;6.70;0.77;;;11.80;99.90;;;;;;6158344;23;20015;-88
2024/03/16 11:41:30;;;;;;;4.72;0.52;;;11.80;99.90;;;;;;6209165;23;20008;-87
2024/03/16 11:43:59;;;;;;;5.22;0.50;;;11.80;99.90;;;;;;6158503;23;20355;-85
2024/03/16 11:46:25;;;;;;;4.43;0.40;;;11.70;99.90;;;;;;6146936;23;20022;-89
2024/03/16 11:48:52;;;;;;;3.33;0.40;;;11.80;99.90;;;;;;6183358;23;20053;-88
2024/03/16 11:51:18;;;;;;;4.55;0.50;;;11.80;99.90;;;;;;6123460;23;20011;-88
2024/03/16 11:53:44;;;;;;;4.93;0.60;;;11.90;99.90;;;;;;6123553;23;20013;-87
2024/03/16 11:56:11;;;;;;;4.85;0.93;;;12.00;99.90;;;;;;6123427;23;20009;-88
2024/03/16 11:58:39;;;;;;;5.78;0.80;;;12.20;99.90;;;;;;6147383;23;20024;-88
2024/03/16 12:01:15;;;;;;;3.53;0.50;;;12.10;99.90;;;;;;6147567;23;20779;-90
2024/03/16 12:03:42;;;;;;;5.22;0.60;;;12.20;99.90;;;;;;6150726;23;20011;-87
2024/03/16 12:06:11;;;;;;;3.00;0.40;;;12.20;99.90;;;;;;6151826;23;20019;-90
2024/03/16 12:08:37;;;;;;;6.30;1.05;;;12.30;99.90;;;;;;6149646;23;20429;-85
2024/03/16 12:11:08;;;;;;;3.50;0.57;;;12.50;99.90;;;;;;6175188;23;20009;-86
2024/03/16 12:13:35;;;;;;;7.57;0.70;;;12.70;99.90;;;;;;6184739;23;20048;-86
2024/03/16 12:16:02;;;;;;;2.75;0.35;;;12.80;99.90;;;;;;6172940;23;20016;-90
2024/03/16 12:18:29;;;;;;;4.28;0.52;;;12.90;99.90;;;;;;6142031;23;20346;-84
2024/03/16 12:20:55;;;;;;;4.50;0.30;;;12.90;99.90;;;;;;6168566;23;20009;-83
2024/03/16 12:23:29;;;;;;;4.50;0.50;;;12.90;99.90;;;;;;6146191;23;20008;-86
2024/03/16 12:25:59;;;;;;;7.53;1.25;;;12.80;99.90;;;;;;6146184;23;20001;-86
2024/03/16 12:28:28;;;;;;;6.43;1.77;;;12.70;99.90;;;;;;6119580;23;20016;-84
2024/03/16 12:30:58;;;;;;;6.70;2.72;;;12.60;99.90;;;;;;6156511;23;20001;-83
2024/03/16 12:33:27;;;;;;;4.05;1.02;;;12.70;99.90;;;;;;6145677;23;20353;-85
2024/03/16 12:35:54;;;;;;;6.82;1.15;;;12.80;99.90;;;;;;6121861;23;20445;-85
2024/03/16 12:38:20;;;;;;;5.40;1.90;;;12.70;99.90;;;;;;6143459;23;20017;-85
2024/03/16 12:40:47;;;;;;;6.22;1.00;;;12.70;99.90;;;;;;6179840;23;20000;-81
2024/03/16 12:43:14;;;;;;;3.75;0.60;;;12.70;99.90;;;;;;6171312;23;20575;-83
2024/03/16 12:45:43;;;;;;;5.30;0.60;;;12.80;99.90;;;;;;6182829;23;20012;-90
2024/03/16 12:48:10;;;;;;;6.30;0.70;;;13.00;99.90;;;;;;6147847;23;20536;-87
2024/03/16 12:50:37;;;;;;;3.45;0.52;;;13.70;99.90;;;;;;6125320;23;20012;-87
2024/03/16 12:53:03;;;;;;;3.38;0.45;;;14.20;99.90;;;;;;6161057;23;20013;-92
2024/03/16 12:55:29;;;;;;;6.25;0.88;;;14.30;99.90;;;;;;6150231;23;20012;-87
2024/03/16 12:57:56;;;;;;;3.25;0.30;;;14.00;99.90;;;;;;6148173;23;20016;-89